Time;durP1;ratioP1;P1;durP2;ratioP2;P2;SDS_P1;SDS_P2;PMS_P1;PMS_P2;Temp;Humidity;BMP_temperature;BMP_pressure;BME280_temperature;BME280_humidity;BME280_pressure;Samples;Min_cycle;Max_cycle;Signal;HPM_P1;HPM_P2
2023/01/16 00:03:13;;;;;;;2.50;1.20;;;20.20;60.20;;;;;;4993430;28;87040;-89
2023/01/16 00:05:38;;;;;;;3.33;1.55;;;20.20;60.40;;;;;;4997022;28;88363;-88
2023/01/16 00:08:04;;;;;;;3.30;1.17;;;20.20;60.40;;;;;;5013957;28;89804;-89
2023/01/16 00:10:30;;;;;;;2.40;1.30;;;20.20;60.50;;;;;;4999571;28;86890;-89
2023/01/16 00:12:55;;;;;;;3.22;1.40;;;20.10;60.40;;;;;;4999775;28;86848;-89
2023/01/16 00:45:44;;;;;;;1.23;0.90;;;20.00;60.60;;;;;;4998541;28;86961;-89
2023/01/16 00:48:10;;;;;;;1.52;1.00;;;20.00;61.40;;;;;;4999040;28;86894;-89
2023/01/16 00:50:36;;;;;;;1.95;1.08;;;19.90;60.60;;;;;;4998478;28;86033;-89
2023/01/16 00:53:06;;;;;;;3.05;0.98;;;19.90;60.70;;;;;;5013420;28;89924;-89
2023/01/16 00:55:34;;;;;;;2.55;0.95;;;19.90;60.80;;;;;;4988367;28;87912;-86
2023/01/16 01:08:06;;;;;;;1.60;0.85;;;19.90;60.70;;;;;;4992850;28;86923;-89
2023/01/16 01:10:35;;;;;;;2.78;1.23;;;19.90;60.70;;;;;;4978217;28;86774;-89
2023/01/16 01:13:00;;;;;;;1.33;0.80;;;19.90;60.70;;;;;;4978869;28;86915;-90
2023/01/16 01:15:26;;;;;;;2.88;1.23;;;19.80;60.70;;;;;;4977979;28;87467;-89
2023/01/16 01:17:52;;;;;;;2.00;0.90;;;19.80;60.80;;;;;;4978279;28;88323;-89
2023/01/16 01:23:39;;;;;;;1.95;0.90;;;19.80;60.50;;;;;;4974672;28;86825;-89
2023/01/16 01:26:15;;;;;;;1.55;0.98;;;19.80;60.60;;;;;;4977658;28;88567;-89
2023/01/16 01:28:44;;;;;;;1.63;0.77;;;19.80;60.80;;;;;;4977588;28;89733;-89
2023/01/16 01:31:12;;;;;;;1.83;1.00;;;19.80;60.70;;;;;;4978307;28;86821;-90
2023/01/16 01:33:38;;;;;;;1.65;0.95;;;19.80;60.80;;;;;;4977991;28;87078;-90
2023/01/16 02:10:23;;;;;;;3.03;1.10;;;19.60;60.80;;;;;;4971215;28;87041;-89
2023/01/16 02:12:50;;;;;;;2.20;1.00;;;19.60;60.60;;;;;;4995424;28;86959;-89
2023/01/16 02:15:16;;;;;;;1.52;0.90;;;19.60;60.60;;;;;;4994755;28;88577;-88
2023/01/16 02:45:25;;;;;;;;;;;19.50;60.70;;;;;;4995001;28;86906;-88
2023/01/16 02:48:36;;;;;;;1.73;0.93;;;19.50;60.50;;;;;;4998705;28;86829;-89
2023/01/16 02:51:39;;;;;;;1.23;0.82;;;19.50;60.40;;;;;;4953085;28;87439;-89
2023/01/16 02:55:06;;;;;;;1.10;0.85;;;19.50;60.30;;;;;;4879199;28;88233;-89
2023/01/16 02:57:40;;;;;;;1.13;0.70;;;19.50;60.20;;;;;;4806274;29;88301;-89
2023/01/16 03:00:08;;;;;;;2.65;1.05;;;19.50;60.30;;;;;;4805954;29;88083;-89
2023/01/16 03:02:33;;;;;;;1.55;0.75;;;19.50;60.50;;;;;;4808540;29;86999;-88
2023/01/16 03:05:01;;;;;;;1.80;0.90;;;19.40;60.40;;;;;;4806129;29;88198;-88
2023/01/16 03:08:05;;;;;;;1.20;0.93;;;19.40;60.40;;;;;;4805913;29;88480;-88
2023/01/16 03:10:36;;;;;;;1.60;1.05;;;19.40;60.40;;;;;;4750877;29;86910;-88
2023/01/16 03:13:24;;;;;;;1.35;0.65;;;19.40;60.40;;;;;;4752379;29;87451;-88
2023/01/16 03:15:58;;;;;;;2.90;1.13;;;19.40;60.40;;;;;;4751171;29;92863;-90
2023/01/16 03:18:35;;;;;;;1.17;0.60;;;19.40;60.40;;;;;;4751620;29;88008;-90
2023/01/16 03:21:04;;;;;;;2.47;0.98;;;19.40;60.50;;;;;;4751188;29;87000;-89
2023/01/16 03:40:24;;;;;;;1.40;0.70;;;19.30;60.30;;;;;;4899638;28;91735;-89
2023/01/16 03:43:00;;;;;;;2.03;0.80;;;19.40;60.40;;;;;;4899145;28;92278;-88
2023/01/16 03:45:38;;;;;;;1.35;0.60;;;19.30;60.20;;;;;;4899604;28;86911;-89
2023/01/16 03:48:29;;;;;;;2.60;0.93;;;19.30;60.20;;;;;;4961741;28;87481;-89
2023/01/16 03:51:00;;;;;;;1.70;0.98;;;19.30;60.20;;;;;;4938073;28;88491;-90
2023/01/16 03:53:45;;;;;;;1.20;0.70;;;19.30;60.20;;;;;;4926645;28;88260;-90
2023/01/16 03:56:20;;;;;;;2.45;1.00;;;19.30;60.30;;;;;;4937802;28;87893;-89
2023/01/16 03:58:48;;;;;;;0.68;0.65;;;19.30;60.20;;;;;;4929239;28;88023;-89
2023/01/16 04:02:01;;;;;;;2.78;1.00;;;19.30;60.00;;;;;;4938471;28;88216;-89
2023/01/16 04:04:33;;;;;;;2.10;0.77;;;19.30;60.10;;;;;;4896774;28;92648;-89
2023/01/16 04:07:23;;;;;;;0.80;0.70;;;19.30;60.30;;;;;;4899607;28;86991;-89
2023/01/16 04:09:59;;;;;;;1.55;0.90;;;19.20;60.20;;;;;;4899505;28;91182;-88
2023/01/16 04:12:32;;;;;;;0.95;0.63;;;19.20;60.20;;;;;;4898837;28;88854;-89
2023/01/16 04:15:07;;;;;;;1.58;0.70;;;19.20;60.30;;;;;;4899411;28;88410;-89
2023/01/16 04:51:12;;;;;;;0.93;0.68;;;19.10;59.90;;;;;;4997242;28;87986;-89
2023/01/16 04:53:37;;;;;;;2.33;0.80;;;19.10;60.20;;;;;;4998380;28;88366;-88
2023/01/16 04:56:03;;;;;;;1.80;0.82;;;19.10;60.00;;;;;;4989514;28;87902;-89
2023/01/16 04:58:29;;;;;;;1.52;0.70;;;19.10;60.10;;;;;;4998620;28;86920;-89
2023/01/16 05:00:54;;;;;;;1.42;0.82;;;19.10;60.00;;;;;;4999219;28;88013;-89
2023/01/16 05:13:26;;;;;;;1.55;0.88;;;19.10;59.90;;;;;;4974335;28;91712;-88
2023/01/16 05:15:52;;;;;;;1.80;0.70;;;19.10;60.00;;;;;;4999311;28;87306;-88
2023/01/16 05:18:17;;;;;;;1.60;0.75;;;19.10;59.80;;;;;;4996440;28;86899;-88
2023/01/16 05:20:43;;;;;;;1.27;0.63;;;19.10;59.90;;;;;;4997970;28;87230;-87
2023/01/16 05:23:11;;;;;;;0.70;0.70;;;19.00;59.80;;;;;;4997503;28;89513;-88
2023/01/16 05:25:38;;;;;;;2.10;0.90;;;19.00;59.80;;;;;;4994653;28;90637;-88
2023/01/16 05:31:27;;;;;;;2.30;0.80;;;19.10;59.80;;;;;;4995862;28;90542;-88
2023/01/16 05:33:52;;;;;;;1.52;0.77;;;19.10;59.20;;;;;;5014391;28;90179;-89
2023/01/16 05:36:18;;;;;;;1.15;0.50;;;19.20;59.20;;;;;;4997609;28;87381;-87
2023/01/16 05:38:46;;;;;;;1.42;0.88;;;19.30;59.10;;;;;;4997795;28;86788;-89
2023/01/16 05:41:11;;;;;;;4.25;1.10;;;19.50;59.00;;;;;;4997511;28;87499;-86
2023/01/16 05:43:37;;;;;;;2.55;0.70;;;19.60;58.60;;;;;;4995609;28;88094;-87
2023/01/16 05:46:03;;;;;;;1.63;0.80;;;19.70;58.50;;;;;;4994480;28;88371;-87
2023/01/16 05:48:31;;;;;;;2.08;0.95;;;19.90;58.30;;;;;;4992880;28;87836;-89
2023/01/16 05:50:56;;;;;;;1.33;0.70;;;20.10;58.30;;;;;;4993341;28;87304;-89
2023/01/16 05:53:22;;;;;;;1.23;0.80;;;20.20;57.80;;;;;;4988716;28;89869;-88
2023/01/16 05:55:48;;;;;;;1.77;0.88;;;20.30;57.70;;;;;;5003137;28;87668;-89
2023/01/16 05:58:16;;;;;;;2.53;1.00;;;20.40;57.60;;;;;;4998558;28;86791;-89
2023/01/16 06:00:59;;;;;;;2.13;0.80;;;20.50;57.40;;;;;;5003233;28;87112;-88
2023/01/16 06:03:24;;;;;;;1.55;0.63;;;20.60;57.20;;;;;;4995755;28;87092;-88
2023/01/16 06:05:50;;;;;;;2.67;0.80;;;20.60;57.40;;;;;;4997841;28;88208;-90
2023/01/16 06:08:16;;;;;;;5.50;1.05;;;20.60;57.00;;;;;;4997291;28;86783;-88
2023/01/16 06:10:41;;;;;;;1.88;0.68;;;20.60;57.10;;;;;;4997150;28;86956;-88
2023/01/16 06:49:33;;;;;;;1.20;0.70;;;20.10;57.90;;;;;;4970525;28;91530;-88
2023/01/16 06:52:00;;;;;;;1.88;0.80;;;20.10;57.90;;;;;;4999325;28;87852;-89
2023/01/16 06:54:25;;;;;;;1.75;0.70;;;20.10;57.90;;;;;;5010741;28;91238;-89
2023/01/16 06:56:51;;;;;;;1.75;0.65;;;20.10;57.80;;;;;;4999871;28;88234;-87
2023/01/16 06:59:17;;;;;;;0.85;0.55;;;20.20;58.10;;;;;;4999679;28;87681;-88
2023/01/16 07:01:42;;;;;;;1.00;0.50;;;20.20;57.80;;;;;;5015505;28;87121;-88
2023/01/16 07:04:09;;;;;;;1.40;0.52;;;20.20;57.90;;;;;;5000729;28;86761;-86
2023/01/16 07:06:36;;;;;;;2.83;0.60;;;20.20;57.80;;;;;;4999875;28;87357;-87
2023/01/16 07:12:23;;;;;;;1.25;0.63;;;20.20;57.30;;;;;;4998498;28;86995;-89
2023/01/16 07:23:47;;;;;;;;;;;20.20;57.60;;;;;;4996105;28;86832;-89
2023/01/16 07:26:23;;;;;;;1.90;0.65;;;20.20;57.40;;;;;;5000574;28;87460;-89
2023/01/16 07:28:49;;;;;;;1.95;0.82;;;20.20;57.40;;;;;;4999239;28;88550;-88
2023/01/16 07:31:15;;;;;;;3.30;0.90;;;20.20;57.40;;;;;;5000068;28;88376;-88
2023/01/16 07:33:41;;;;;;;13.13;2.60;;;20.20;57.30;;;;;;4999196;28;87021;-87
2023/01/16 07:39:44;;;;;;;36.70;6.20;;;20.20;57.10;;;;;;4997110;28;87227;-86
2023/01/16 07:42:10;;;;;;;20.33;4.50;;;20.30;56.30;;;;;;5000873;28;89223;-87
2023/01/16 07:44:36;;;;;;;24.70;4.68;;;20.40;56.50;;;;;;4998814;28;87831;-88
2023/01/16 07:47:01;;;;;;;23.60;4.40;;;20.40;56.50;;;;;;4999252;28;86896;-88
2023/01/16 07:49:27;;;;;;;20.55;4.43;;;20.40;56.50;;;;;;5000630;28;87311;-88
2023/01/16 07:51:52;;;;;;;29.50;5.38;;;20.40;56.40;;;;;;5000720;28;88323;-87
2023/01/16 07:54:18;;;;;;;23.67;4.90;;;20.50;56.10;;;;;;4999338;28;86937;-88
2023/01/16 07:56:44;;;;;;;22.08;4.60;;;20.60;55.90;;;;;;4999165;28;86869;-86
2023/01/16 07:59:09;;;;;;;32.58;5.95;;;20.60;55.60;;;;;;4997955;28;87645;-88
2023/01/16 08:01:35;;;;;;;23.60;5.25;;;20.50;54.90;;;;;;4999482;28;88374;-87
2023/01/16 08:04:00;;;;;;;23.40;4.70;;;20.50;55.50;;;;;;4999919;28;86901;-87
2023/01/16 08:06:57;;;;;;;20.35;4.68;;;20.30;56.00;;;;;;4998999;28;87213;-89
2023/01/16 08:09:22;;;;;;;30.10;5.25;;;20.20;56.50;;;;;;4936346;28;89369;-88
2023/01/16 08:11:48;;;;;;;23.40;4.93;;;20.10;56.70;;;;;;4937139;28;88856;-88
2023/01/16 08:14:14;;;;;;;16.08;4.63;;;20.10;56.70;;;;;;4935197;28;86930;-88
2023/01/16 08:16:52;;;;;;;19.42;4.30;;;20.00;56.70;;;;;;4937612;28;87017;-86
2023/01/16 08:19:18;;;;;;;21.00;4.82;;;20.00;57.10;;;;;;4937812;28;88273;-87
2023/01/16 08:21:43;;;;;;;21.13;4.65;;;19.90;57.20;;;;;;4937079;28;88338;-88
2023/01/16 08:24:12;;;;;;;19.98;4.07;;;19.90;57.30;;;;;;4936684;28;86892;-87
2023/01/16 08:26:38;;;;;;;25.48;5.45;;;20.00;57.20;;;;;;4937351;28;86969;-88
2023/01/16 08:29:04;;;;;;;19.35;4.75;;;20.00;57.00;;;;;;4936730;28;88153;-89
2023/01/16 08:31:41;;;;;;;18.52;4.70;;;20.10;57.00;;;;;;4937076;28;94318;-88
2023/01/16 08:34:06;;;;;;;14.52;3.83;;;20.10;56.90;;;;;;4937717;28;88149;-88
2023/01/16 08:36:32;;;;;;;16.08;4.35;;;20.10;56.90;;;;;;4937037;28;87113;-86
2023/01/16 08:51:55;;;;;;;12.90;3.78;;;20.00;57.10;;;;;;4997628;28;86966;-88
2023/01/16 08:54:21;;;;;;;16.13;3.85;;;20.00;57.40;;;;;;5013402;28;88702;-87
2023/01/16 08:56:46;;;;;;;12.43;3.28;;;20.00;57.30;;;;;;4998247;28;87109;-87
2023/01/16 08:59:12;;;;;;;16.73;3.95;;;20.10;57.20;;;;;;5013054;28;88810;-88
2023/01/16 09:01:38;;;;;;;13.70;3.80;;;20.10;57.10;;;;;;4997514;28;88057;-87
2023/01/16 09:13:50;;;;;;;19.45;3.90;;;20.10;57.10;;;;;;4997607;28;86876;-87
2023/01/16 09:16:21;;;;;;;12.15;3.45;;;20.00;57.00;;;;;;4998366;28;87075;-88
2023/01/16 09:18:47;;;;;;;14.68;4.05;;;20.00;57.20;;;;;;4997730;28;86902;-88
2023/01/16 09:38:22;;;;;;;11.93;3.75;;;20.10;57.10;;;;;;4996927;28;87650;-89
2023/01/16 09:40:52;;;;;;;10.15;3.30;;;20.10;56.90;;;;;;4997742;28;87703;-88
2023/01/16 09:43:35;;;;;;;11.43;3.00;;;20.20;56.80;;;;;;4998005;28;86951;-87
2023/01/16 09:46:06;;;;;;;11.77;3.80;;;20.20;56.90;;;;;;4996328;28;91587;-88
2023/01/16 09:48:37;;;;;;;17.65;4.38;;;20.20;56.90;;;;;;4995506;28;88514;-87
2023/01/16 09:51:19;;;;;;;10.02;3.30;;;20.20;56.80;;;;;;4996211;28;88409;-88
2023/01/16 10:13:31;;;;;;;10.23;3.13;;;20.00;56.40;;;;;;5000768;28;91584;-88
2023/01/16 10:16:15;;;;;;;12.45;3.55;;;20.10;56.90;;;;;;5000032;28;92606;-87
2023/01/16 10:18:59;;;;;;;6.78;2.45;;;20.10;56.90;;;;;;5000425;28;87042;-88
2023/01/16 10:21:30;;;;;;;10.07;3.08;;;20.00;56.70;;;;;;5000736;28;87199;-88
2023/01/16 10:24:34;;;;;;;10.32;3.45;;;20.10;57.10;;;;;;4999992;28;88331;-87
2023/01/16 10:27:18;;;;;;;9.13;2.75;;;20.00;56.90;;;;;;4957558;28;89291;-86
2023/01/16 10:29:53;;;;;;;7.63;2.80;;;20.10;56.90;;;;;;4960766;28;88016;-88
2023/01/16 10:32:30;;;;;;;7.55;2.55;;;20.10;56.90;;;;;;4956561;28;87544;-88
2023/01/16 10:50:42;;;;;;;7.63;3.08;;;20.10;56.90;;;;;;4956764;28;86289;-88
2023/01/16 11:00:30;;;;;;;8.15;2.53;;;20.30;56.10;;;;;;4957860;28;88117;-88
2023/01/16 11:03:21;;;;;;;7.40;3.05;;;20.30;56.10;;;;;;4938638;28;89377;-87
2023/01/16 11:05:47;;;;;;;6.25;2.78;;;20.20;56.20;;;;;;4937076;28;87101;-88
2023/01/16 11:08:13;;;;;;;7.85;2.70;;;20.30;56.40;;;;;;4937985;28;86987;-87
2023/01/16 11:20:45;;;;;;;7.60;2.90;;;20.30;56.50;;;;;;4937694;28;86288;-88
2023/01/16 11:23:19;;;;;;;9.00;3.00;;;20.20;56.50;;;;;;4937878;28;88627;-87
2023/01/16 11:25:47;;;;;;;7.85;2.75;;;20.40;56.40;;;;;;4937390;28;88507;-87
2023/01/16 11:31:57;;;;;;;9.65;2.67;;;20.50;56.60;;;;;;4919105;28;90210;-87
2023/01/16 11:34:37;;;;;;;8.68;2.83;;;20.40;56.70;;;;;;4919178;28;88670;-86
2023/01/16 11:37:06;;;;;;;12.70;2.47;;;20.60;56.80;;;;;;4950480;28;92070;-85
2023/01/16 11:39:35;;;;;;;4.03;1.90;;;20.60;57.00;;;;;;4978613;28;87083;-85
2023/01/16 11:46:02;;;;;;;5.68;2.38;;;20.70;57.00;;;;;;4968812;28;87436;-88
2023/01/16 11:47:44;;;;;;;5.35;2.08;;;20.80;57.10;;;;;;4977014;28;87047;-87
2023/01/16 11:50:29;;;;;;;5.50;2.25;;;20.80;57.10;;;;;;4978313;28;86862;-86
2023/01/16 12:03:46;;;;;;;8.63;2.20;;;20.90;57.00;;;;;;4909479;28;87157;-86
2023/01/16 12:06:22;;;;;;;6.30;2.40;;;20.80;56.90;;;;;;4850085;29;87321;-86
2023/01/16 12:09:09;;;;;;;10.20;2.08;;;20.80;57.10;;;;;;4831772;29;88915;-87
2023/01/16 12:11:56;;;;;;;9.45;2.45;;;20.80;56.90;;;;;;4828077;29;87721;-86
2023/01/16 12:21:40;;;;;;;9.98;2.25;;;20.80;57.10;;;;;;4829869;29;87241;-85
2023/01/16 12:24:06;;;;;;;11.32;2.70;;;20.90;56.90;;;;;;4863562;28;88385;-86
2023/01/16 12:26:51;;;;;;;7.85;2.30;;;20.90;57.00;;;;;;4887421;28;87958;-86
2023/01/16 12:29:51;;;;;;;8.20;1.92;;;21.00;57.00;;;;;;4888895;28;87110;-88
2023/01/16 12:32:59;;;;;;;6.00;1.77;;;21.10;56.90;;;;;;4875229;28;88515;-88
2023/01/16 12:35:38;;;;;;;6.53;2.20;;;21.20;57.10;;;;;;4886708;28;87825;-86
2023/01/16 12:38:18;;;;;;;5.13;1.70;;;21.20;56.90;;;;;;4798114;28;87766;-85
2023/01/16 12:44:05;;;;;;;7.22;2.22;;;21.30;57.00;;;;;;4946394;28;87130;-85
2023/01/16 12:46:45;;;;;;;5.05;2.15;;;21.20;57.00;;;;;;4952979;28;88301;-85
2023/01/16 13:08:51;;;;;;;5.38;1.98;;;21.10;57.40;;;;;;4975512;28;88431;-85
2023/01/16 13:14:13;;;;;;;7.47;2.42;;;21.10;57.60;;;;;;4977426;28;86927;-85
2023/01/16 13:20:11;;;;;;;4.80;1.60;;;21.20;57.70;;;;;;5015845;28;86231;-86
2023/01/16 13:23:06;;;;;;;6.60;2.08;;;21.30;57.60;;;;;;5015134;28;87530;-85
2023/01/16 13:25:40;;;;;;;5.05;1.60;;;21.30;57.60;;;;;;5015567;28;88021;-86
2023/01/16 13:28:07;;;;;;;3.63;1.83;;;21.30;57.80;;;;;;5017911;28;87901;-84
2023/01/16 13:30:36;;;;;;;6.32;2.08;;;21.30;57.50;;;;;;5014216;28;87067;-85
2023/01/16 13:33:24;;;;;;;3.38;1.73;;;21.30;57.70;;;;;;5015886;28;88148;-85
2023/01/16 13:36:29;;;;;;;5.07;1.85;;;21.20;57.60;;;;;;4988627;28;91142;-86
2023/01/16 13:38:59;;;;;;;4.75;1.30;;;21.20;57.70;;;;;;4975432;28;86903;-85
2023/01/16 13:41:43;;;;;;;4.47;1.88;;;21.20;57.80;;;;;;4976861;28;87050;-87
2023/01/16 13:47:38;;;;;;;4.00;1.83;;;21.20;57.80;;;;;;4940831;28;86788;-88
2023/01/16 13:50:16;;;;;;;4.05;1.88;;;21.20;57.90;;;;;;4916533;28;87405;-85
2023/01/16 13:52:43;;;;;;;4.82;2.00;;;21.20;57.80;;;;;;4916349;28;88606;-86
2023/01/16 13:55:30;;;;;;;8.63;2.10;;;21.30;58.00;;;;;;4916107;28;88888;-86
2023/01/16 13:58:07;;;;;;;5.40;2.05;;;21.30;57.90;;;;;;4920262;28;92982;-88
2023/01/16 14:00:37;;;;;;;3.55;1.70;;;21.30;58.00;;;;;;4917987;28;86840;-87
2023/01/16 14:03:20;;;;;;;7.75;2.17;;;21.30;57.90;;;;;;4916888;28;87229;-87
2023/01/16 14:05:51;;;;;;;4.00;1.40;;;21.40;57.90;;;;;;4916978;28;88544;-86
2023/01/16 14:11:47;;;;;;;3.58;1.70;;;21.40;57.20;;;;;;4916698;28;87021;-87
2023/01/16 14:17:27;;;;;;;4.97;1.83;;;21.30;57.60;;;;;;4954628;28;87280;-89
2023/01/16 14:20:01;;;;;;;6.35;1.65;;;21.30;57.60;;;;;;4955342;28;87348;-87
2023/01/16 14:25:15;;;;;;;2.97;1.10;;;21.20;57.70;;;;;;4975865;28;86937;-87
2023/01/16 14:27:43;;;;;;;4.57;1.50;;;21.20;57.10;;;;;;4977007;28;88666;-88
2023/01/16 14:36:59;;;;;;;3.03;1.10;;;21.20;54.20;;;;;;4974622;28;90468;-86
2023/01/16 14:39:30;;;;;;;4.30;1.83;;;21.20;54.30;;;;;;4974326;28;86945;-87
2023/01/16 14:59:04;;;;;;;8.18;2.10;;;21.20;54.90;;;;;;4983390;28;87477;-81
2023/01/16 15:04:31;;;;;;;9.40;2.20;;;21.30;53.60;;;;;;4983652;28;87307;-82
2023/01/16 15:07:02;;;;;;;7.68;2.60;;;21.50;52.90;;;;;;5003286;28;87267;-82
2023/01/16 15:09:29;;;;;;;6.30;2.78;;;21.50;54.70;;;;;;4992287;28;87871;-82
2023/01/16 15:11:59;;;;;;;9.75;2.95;;;21.50;54.60;;;;;;4996946;28;87567;-82
2023/01/16 15:14:33;;;;;;;12.60;2.88;;;21.50;54.70;;;;;;5004242;28;88207;-81
2023/01/16 15:22:55;;;;;;;7.15;2.65;;;21.40;55.20;;;;;;5006573;28;87287;-83
2023/01/16 15:25:41;;;;;;;10.23;2.83;;;21.30;55.50;;;;;;5010600;28;88202;-83
2023/01/16 15:28:26;;;;;;;6.00;2.40;;;21.30;55.70;;;;;;5002622;28;87624;-83
2023/01/16 15:30:58;;;;;;;8.70;2.65;;;21.30;56.10;;;;;;5004093;28;91128;-83
2023/01/16 15:33:45;;;;;;;8.35;2.50;;;21.20;56.50;;;;;;5009495;28;88388;-84
2023/01/16 15:36:25;;;;;;;8.50;2.95;;;21.30;57.00;;;;;;5003217;28;88373;-83
2023/01/16 15:39:22;;;;;;;9.43;2.55;;;21.30;57.30;;;;;;5007382;28;87073;-83
2023/01/16 15:47:59;;;;;;;7.85;2.70;;;21.40;56.90;;;;;;4971129;28;87946;-82
2023/01/16 15:50:32;;;;;;;6.25;2.28;;;21.30;55.90;;;;;;4972628;28;88360;-81
2023/01/16 15:52:59;;;;;;;6.28;2.38;;;21.30;55.50;;;;;;4975473;28;87059;-81
2023/01/16 15:55:28;;;;;;;6.97;2.40;;;21.30;55.90;;;;;;4975728;28;88437;-81
2023/01/16 15:57:59;;;;;;;7.25;2.42;;;21.40;56.20;;;;;;4975325;28;92387;-81
2023/01/16 16:00:37;;;;;;;6.57;2.13;;;21.50;56.40;;;;;;4968977;28;94308;-81
2023/01/16 16:03:15;;;;;;;7.93;2.60;;;21.50;56.20;;;;;;4974350;28;87191;-84
2023/01/16 16:05:45;;;;;;;8.27;2.40;;;21.60;56.90;;;;;;4975022;28;88155;-85
2023/01/16 16:08:16;;;;;;;4.60;2.20;;;21.50;56.90;;;;;;4975691;28;88148;-85
2023/01/16 16:13:27;;;;;;;5.18;1.95;;;21.60;56.70;;;;;;4974734;28;87022;-80
2023/01/16 16:18:57;;;;;;;7.32;2.72;;;21.50;57.20;;;;;;4925875;28;88236;-80
2023/01/16 16:21:34;;;;;;;5.68;2.22;;;21.50;57.60;;;;;;4935768;28;87519;-80
2023/01/16 16:24:05;;;;;;;9.00;2.40;;;21.50;57.20;;;;;;4933778;28;87990;-80
2023/01/16 16:26:34;;;;;;;7.15;2.42;;;21.50;57.20;;;;;;4936532;28;87992;-80
2023/01/16 16:29:01;;;;;;;6.85;2.28;;;21.50;57.40;;;;;;4936276;28;93781;-85
2023/01/16 16:31:34;;;;;;;5.75;1.95;;;21.50;57.50;;;;;;4934845;28;86953;-85
2023/01/16 16:34:14;;;;;;;10.25;2.40;;;21.50;57.40;;;;;;4935004;28;87769;-84
2023/01/16 16:36:44;;;;;;;8.57;2.55;;;21.60;57.40;;;;;;4931401;28;90178;-84
2023/01/16 16:39:25;;;;;;;10.20;2.45;;;21.60;57.40;;;;;;4920343;28;87865;-84
2023/01/16 16:44:39;;;;;;;4.53;2.10;;;21.60;57.80;;;;;;4917208;28;87899;-84
2023/01/16 16:47:16;;;;;;;5.55;2.25;;;21.60;57.60;;;;;;4928136;28;89134;-83
2023/01/16 16:49:44;;;;;;;5.50;2.47;;;21.50;57.60;;;;;;4933264;28;91002;-84
2023/01/16 16:52:31;;;;;;;4.40;1.85;;;21.50;57.70;;;;;;4933520;28;87811;-84
2023/01/16 16:54:59;;;;;;;3.80;1.90;;;21.60;57.60;;;;;;4936193;28;87881;-84
2023/01/16 16:57:29;;;;;;;6.15;2.22;;;21.60;57.50;;;;;;4988079;28;86977;-83
2023/01/16 16:59:55;;;;;;;5.60;2.20;;;21.60;57.40;;;;;;4982580;28;87890;-84
2023/01/16 17:02:22;;;;;;;6.55;2.30;;;21.60;57.50;;;;;;4992192;28;87961;-84
2023/01/16 17:04:50;;;;;;;6.68;2.40;;;21.60;57.10;;;;;;4987337;28;87262;-84
2023/01/16 17:07:16;;;;;;;6.63;2.13;;;21.60;57.30;;;;;;4991944;28;88270;-84
2023/01/16 17:09:41;;;;;;;5.43;2.10;;;21.60;57.40;;;;;;4986731;28;88029;-84
2023/01/16 17:12:20;;;;;;;5.65;2.42;;;21.60;57.50;;;;;;4988518;28;87871;-84
2023/01/16 17:14:46;;;;;;;7.25;2.50;;;21.60;57.40;;;;;;4986534;28;87241;-83
2023/01/16 17:17:18;;;;;;;5.25;2.08;;;21.50;57.40;;;;;;4985328;28;88346;-83
2023/01/16 17:19:45;;;;;;;5.63;2.00;;;21.50;57.50;;;;;;4988265;28;87308;-84
2023/01/16 17:22:11;;;;;;;7.15;2.20;;;21.50;57.40;;;;;;4985466;28;87664;-84
2023/01/16 17:24:37;;;;;;;6.88;2.30;;;21.60;57.40;;;;;;4980619;28;87025;-84
2023/01/16 17:27:07;;;;;;;5.85;2.25;;;21.60;57.50;;;;;;4980068;28;87787;-83
2023/01/16 17:29:34;;;;;;;5.18;2.00;;;21.60;57.60;;;;;;4980560;28;88029;-83
2023/01/16 17:32:04;;;;;;;8.30;2.53;;;21.60;57.80;;;;;;4989019;28;86938;-84
2023/01/16 17:34:32;;;;;;;5.18;2.10;;;21.60;57.80;;;;;;4980150;28;91190;-84
2023/01/16 17:36:58;;;;;;;7.03;2.03;;;21.50;57.60;;;;;;4983311;28;89686;-84
2023/01/16 17:39:25;;;;;;;8.65;2.20;;;21.50;57.60;;;;;;4978295;28;87043;-84
2023/01/16 17:47:08;;;;;;;3.67;1.95;;;21.40;57.80;;;;;;4985289;28;95338;-84
2023/01/16 17:50:20;;;;;;;4.22;2.00;;;21.50;57.90;;;;;;4989062;28;87273;-84
2023/01/16 17:52:20;;;;;;;6.32;2.00;;;21.50;57.80;;;;;;4981255;28;87866;-84
2023/01/16 17:57:31;;;;;;;4.88;1.95;;;21.50;57.90;;;;;;4984322;28;87252;-84
2023/01/16 17:59:57;;;;;;;4.25;1.88;;;21.60;57.70;;;;;;4988857;28;87843;-84
2023/01/16 18:02:23;;;;;;;3.92;2.00;;;21.60;57.60;;;;;;4984160;28;87429;-84
2023/01/16 18:04:50;;;;;;;4.10;1.83;;;21.70;57.50;;;;;;4979798;28;87408;-83
2023/01/16 18:07:16;;;;;;;3.85;1.55;;;21.80;57.40;;;;;;4985300;28;88063;-84
2023/01/16 18:09:42;;;;;;;5.05;1.88;;;21.90;57.30;;;;;;4984239;28;89729;-85
2023/01/16 18:17:38;;;;;;;3.78;1.70;;;22.20;57.10;;;;;;4982229;28;88358;-85
2023/01/16 18:20:04;;;;;;;4.18;1.70;;;22.20;56.80;;;;;;4988197;28;88655;-84
2023/01/16 18:22:34;;;;;;;3.58;1.70;;;22.30;56.50;;;;;;4979182;28;87814;-85
2023/01/16 18:25:01;;;;;;;4.60;1.50;;;22.30;56.60;;;;;;4984835;28;87467;-84
2023/01/16 18:27:28;;;;;;;5.32;1.80;;;22.30;56.60;;;;;;4989609;28;88358;-84
2023/01/16 18:29:54;;;;;;;4.63;2.00;;;22.20;57.40;;;;;;4985227;28;87964;-84
2023/01/16 18:32:22;;;;;;;7.07;1.75;;;22.20;56.90;;;;;;4989286;28;87022;-84
2023/01/16 18:34:48;;;;;;;5.32;1.70;;;22.20;57.00;;;;;;4989390;28;86377;-84
2023/01/16 18:37:15;;;;;;;4.00;1.45;;;22.20;57.10;;;;;;4990764;28;88050;-84
2023/01/16 19:01:55;;;;;;;4.43;1.73;;;22.20;56.90;;;;;;4967329;28;88045;-84
2023/01/16 19:02:21;;;;;;;5.25;1.60;;;22.30;56.50;;;;;;4984819;28;89666;-85
2023/01/16 19:04:47;;;;;;;3.75;1.50;;;22.30;56.60;;;;;;4982234;28;87087;-85
2023/01/16 19:07:20;;;;;;;4.20;1.60;;;22.40;56.40;;;;;;4981413;28;87431;-84
2023/01/16 19:09:46;;;;;;;3.83;1.77;;;22.40;56.50;;;;;;4986473;28;89122;-85
2023/01/16 19:12:16;;;;;;;3.83;1.58;;;22.50;56.40;;;;;;4983153;28;88876;-85
2023/01/16 19:14:42;;;;;;;;;;;22.50;56.50;;;;;;4987173;28;87425;-85
2023/01/16 19:17:10;;;;;;;4.68;1.70;;;22.60;56.30;;;;;;4983214;28;86890;-85
2023/01/16 19:19:38;;;;;;;4.22;1.73;;;22.70;56.10;;;;;;4993792;28;88186;-85
2023/01/16 19:22:04;;;;;;;2.88;1.40;;;22.80;56.00;;;;;;4986454;28;87743;-85
2023/01/16 19:24:31;;;;;;;3.42;1.60;;;22.80;55.90;;;;;;4991609;28;87177;-84
2023/01/16 19:27:00;;;;;;;4.45;1.38;;;22.80;55.60;;;;;;4992107;28;87423;-84
2023/01/16 19:29:26;;;;;;;4.47;1.60;;;22.80;55.60;;;;;;4985538;28;88556;-85
2023/01/16 19:31:53;;;;;;;4.13;1.63;;;22.80;55.70;;;;;;4992672;28;87180;-85
2023/01/16 19:34:19;;;;;;;2.53;1.40;;;22.80;55.60;;;;;;4984511;28;88042;-85
2023/01/16 19:36:46;;;;;;;3.92;1.77;;;22.80;55.80;;;;;;4988468;28;87380;-85
2023/01/16 19:39:13;;;;;;;3.90;1.55;;;22.70;55.90;;;;;;4993926;28;87714;-85
2023/01/16 19:47:10;;;;;;;3.85;1.27;;;22.60;56.20;;;;;;4985555;28;88117;-85
2023/01/16 19:49:37;;;;;;;4.30;1.50;;;22.60;56.30;;;;;;4987752;28;88477;-84
2023/01/16 19:52:03;;;;;;;4.10;1.55;;;22.50;56.30;;;;;;4987422;28;87756;-85
2023/01/16 19:54:29;;;;;;;2.80;1.45;;;22.50;56.50;;;;;;4989319;28;86900;-85
2023/01/16 19:56:55;;;;;;;3.58;1.50;;;22.60;56.60;;;;;;4985479;28;87190;-85
2023/01/16 19:59:24;;;;;;;3.85;1.40;;;22.60;56.30;;;;;;4984665;28;89378;-85
2023/01/16 20:01:52;;;;;;;3.88;1.67;;;22.60;56.20;;;;;;4973973;28;89623;-86
2023/01/16 20:04:21;;;;;;;3.55;1.40;;;22.60;55.90;;;;;;4989707;28;87411;-85
2023/01/16 20:06:47;;;;;;;2.40;1.33;;;22.60;56.20;;;;;;4991000;28;87514;-85
2023/01/16 20:09:13;;;;;;;2.63;1.20;;;22.60;56.00;;;;;;4987785;28;88341;-85
2023/01/16 20:14:26;;;;;;;2.95;1.40;;;22.60;56.10;;;;;;4986840;28;86816;-85
2023/01/16 20:16:52;;;;;;;3.25;1.17;;;22.60;56.20;;;;;;4990610;28;86885;-84
2023/01/16 20:19:17;;;;;;;3.10;1.20;;;22.60;56.20;;;;;;4989513;28;88541;-85
2023/01/16 20:21:43;;;;;;;3.67;1.42;;;22.60;56.40;;;;;;4984716;28;87671;-85
2023/01/16 20:24:08;;;;;;;2.50;1.27;;;22.60;56.50;;;;;;4986624;28;87878;-85
2023/01/16 20:26:38;;;;;;;3.50;1.63;;;22.60;56.30;;;;;;4986774;28;87873;-85
2023/01/16 20:29:04;;;;;;;3.30;1.48;;;22.60;56.10;;;;;;4989377;28;87547;-84
2023/01/16 20:31:32;;;;;;;3.78;1.88;;;22.60;56.20;;;;;;4994273;28;88104;-84
2023/01/16 20:33:58;;;;;;;4.78;1.15;;;22.60;56.40;;;;;;4994328;28;87221;-86
2023/01/16 20:36:24;;;;;;;2.08;1.00;;;22.50;56.50;;;;;;4978533;28;87459;-85
2023/01/16 20:38:50;;;;;;;2.70;1.13;;;22.50;56.50;;;;;;5000452;28;90293;-85
2023/01/16 20:47:00;;;;;;;2.10;1.38;;;22.60;56.30;;;;;;4981374;28;87035;-85
2023/01/16 20:49:27;;;;;;;2.40;1.37;;;22.60;56.20;;;;;;4990414;28;88919;-85
2023/01/16 20:51:54;;;;;;;2.60;1.40;;;22.60;56.10;;;;;;4981380;28;89016;-85
2023/01/16 20:54:22;;;;;;;2.42;1.05;;;22.60;56.20;;;;;;4984586;28;87037;-84
2023/01/16 20:56:49;;;;;;;3.03;1.20;;;22.60;56.30;;;;;;4993281;28;90695;-85
2023/01/16 20:59:15;;;;;;;2.55;1.30;;;22.70;56.20;;;;;;4985438;28;89675;-85
2023/01/16 21:01:41;;;;;;;2.30;1.15;;;22.70;56.20;;;;;;4985009;28;87297;-85
2023/01/16 21:04:06;;;;;;;3.00;1.50;;;22.60;56.30;;;;;;4985609;28;86944;-84